sensor_id;sensor_type;location;lat;lon;timestamp;P1;durP1;ratioP1;P2;durP2;ratioP2
52734;SDS011;38631;47.572;10.704;2024-03-25T00:01:37;1.55;;;0.57;;
52734;SDS011;38631;47.572;10.704;2024-03-25T00:04:02;4.33;;;0.80;;
52734;SDS011;38631;47.572;10.704;2024-03-25T00:06:27;1.95;;;0.60;;
52734;SDS011;38631;47.572;10.704;2024-03-25T00:08:53;2.40;;;0.73;;
52734;SDS011;38631;47.572;10.704;2024-03-25T00:11:18;2.43;;;0.57;;
52734;SDS011;38631;47.572;10.704;2024-03-25T00:13:43;1.92;;;0.80;;
52734;SDS011;38631;47.572;10.704;2024-03-25T00:16:08;2.50;;;1.00;;
52734;SDS011;38631;47.572;10.704;2024-03-25T00:18:34;4.57;;;1.80;;
52734;SDS011;38631;47.572;10.704;2024-03-25T00:20:59;1.57;;;0.77;;
52734;SDS011;38631;47.572;10.704;2024-03-25T00:23:24;2.90;;;0.93;;
52734;SDS011;38631;47.572;10.704;2024-03-25T00:25:49;2.33;;;1.20;;
52734;SDS011;38631;47.572;10.704;2024-03-25T00:28:15;2.58;;;0.95;;
52734;SDS011;38631;47.572;10.704;2024-03-25T00:30:40;2.80;;;0.60;;
52734;SDS011;38631;47.572;10.704;2024-03-25T00:33:05;2.77;;;1.10;;
52734;SDS011;38631;47.572;10.704;2024-03-25T00:35:31;2.58;;;0.73;;
52734;SDS011;38631;47.572;10.704;2024-03-25T00:37:57;2.83;;;0.80;;
52734;SDS011;38631;47.572;10.704;2024-03-25T00:40:22;2.15;;;0.90;;
52734;SDS011;38631;47.572;10.704;2024-03-25T00:42:48;2.92;;;1.00;;
52734;SDS011;38631;47.572;10.704;2024-03-25T00:45:13;1.93;;;0.83;;
52734;SDS011;38631;47.572;10.704;2024-03-25T00:47:38;2.23;;;1.17;;
52734;SDS011;38631;47.572;10.704;2024-03-25T00:50:04;1.45;;;0.70;;
52734;SDS011;38631;47.572;10.704;2024-03-25T00:52:29;1.45;;;0.70;;
52734;SDS011;38631;47.572;10.704;2024-03-25T00:54:54;1.23;;;0.80;;
52734;SDS011;38631;47.572;10.704;2024-03-25T00:57:19;1.40;;;0.80;;
52734;SDS011;38631;47.572;10.704;2024-03-25T00:59:45;1.73;;;0.70;;
52734;SDS011;38631;47.572;10.704;2024-03-25T01:02:10;1.30;;;0.70;;
52734;SDS011;38631;47.572;10.704;2024-03-25T01:04:35;0.85;;;0.70;;
52734;SDS011;38631;47.572;10.704;2024-03-25T01:07:00;1.27;;;0.77;;
52734;SDS011;38631;47.572;10.704;2024-03-25T01:09:26;1.43;;;0.83;;
52734;SDS011;38631;47.572;10.704;2024-03-25T01:11:51;2.05;;;0.93;;
52734;SDS011;38631;47.572;10.704;2024-03-25T01:14:16;2.93;;;0.80;;
52734;SDS011;38631;47.572;10.704;2024-03-25T01:16:41;1.08;;;0.75;;
52734;SDS011;38631;47.572;10.704;2024-03-25T01:19:07;1.17;;;0.70;;
52734;SDS011;38631;47.572;10.704;2024-03-25T01:21:33;1.00;;;0.73;;
52734;SDS011;38631;47.572;10.704;2024-03-25T01:23:58;1.67;;;0.90;;
52734;SDS011;38631;47.572;10.704;2024-03-25T01:26:23;2.07;;;0.93;;
52734;SDS011;38631;47.572;10.704;2024-03-25T01:28:48;3.25;;;1.55;;
52734;SDS011;38631;47.572;10.704;2024-03-25T01:31:14;6.10;;;4.17;;
52734;SDS011;38631;47.572;10.704;2024-03-25T01:33:39;8.13;;;4.20;;
52734;SDS011;38631;47.572;10.704;2024-03-25T01:36:04;5.10;;;2.65;;
52734;SDS011;38631;47.572;10.704;2024-03-25T01:38:30;5.38;;;1.75;;
52734;SDS011;38631;47.572;10.704;2024-03-25T01:40:55;4.20;;;1.87;;
52734;SDS011;38631;47.572;10.704;2024-03-25T01:43:31;1.75;;;1.17;;
52734;SDS011;38631;47.572;10.704;2024-03-25T01:45:56;1.70;;;0.83;;
52734;SDS011;38631;47.572;10.704;2024-03-25T01:48:21;1.30;;;0.90;;
52734;SDS011;38631;47.572;10.704;2024-03-25T01:50:47;1.98;;;1.10;;
52734;SDS011;38631;47.572;10.704;2024-03-25T01:53:12;1.55;;;0.75;;
52734;SDS011;38631;47.572;10.704;2024-03-25T01:55:38;2.38;;;0.85;;
52734;SDS011;38631;47.572;10.704;2024-03-25T01:58:04;1.25;;;0.80;;
52734;SDS011;38631;47.572;10.704;2024-03-25T02:00:29;1.42;;;0.70;;
52734;SDS011;38631;47.572;10.704;2024-03-25T02:02:55;1.33;;;0.80;;
52734;SDS011;38631;47.572;10.704;2024-03-25T02:05:20;1.20;;;0.63;;
52734;SDS011;38631;47.572;10.704;2024-03-25T02:07:45;1.25;;;0.90;;
52734;SDS011;38631;47.572;10.704;2024-03-25T02:10:11;2.85;;;0.70;;
52734;SDS011;38631;47.572;10.704;2024-03-25T02:12:42;2.20;;;0.73;;
52734;SDS011;38631;47.572;10.704;2024-03-25T02:15:08;2.13;;;0.70;;
52734;SDS011;38631;47.572;10.704;2024-03-25T02:17:34;1.33;;;0.70;;
52734;SDS011;38631;47.572;10.704;2024-03-25T02:19:59;1.55;;;0.80;;
52734;SDS011;38631;47.572;10.704;2024-03-25T02:22:24;5.22;;;0.80;;
52734;SDS011;38631;47.572;10.704;2024-03-25T02:24:49;2.53;;;0.80;;
52734;SDS011;38631;47.572;10.704;2024-03-25T02:27:15;4.95;;;0.85;;
52734;SDS011;38631;47.572;10.704;2024-03-25T02:29:41;1.13;;;0.80;;
52734;SDS011;38631;47.572;10.704;2024-03-25T02:32:07;2.05;;;0.80;;
52734;SDS011;38631;47.572;10.704;2024-03-25T02:34:35;0.85;;;0.65;;
52734;SDS011;38631;47.572;10.704;2024-03-25T02:37:00;1.30;;;1.00;;
52734;SDS011;38631;47.572;10.704;2024-03-25T02:39:25;0.87;;;0.70;;
52734;SDS011;38631;47.572;10.704;2024-03-25T02:41:51;1.53;;;0.90;;
52734;SDS011;38631;47.572;10.704;2024-03-25T02:44:16;0.98;;;0.77;;
52734;SDS011;38631;47.572;10.704;2024-03-25T02:46:41;0.90;;;0.55;;
52734;SDS011;38631;47.572;10.704;2024-03-25T02:49:07;3.15;;;0.70;;
52734;SDS011;38631;47.572;10.704;2024-03-25T02:51:32;1.27;;;0.70;;
52734;SDS011;38631;47.572;10.704;2024-03-25T02:53:57;2.03;;;0.97;;
52734;SDS011;38631;47.572;10.704;2024-03-25T02:56:22;5.00;;;2.00;;
52734;SDS011;38631;47.572;10.704;2024-03-25T02:58:47;2.80;;;1.67;;
52734;SDS011;38631;47.572;10.704;2024-03-25T03:01:15;5.07;;;2.13;;
52734;SDS011;38631;47.572;10.704;2024-03-25T03:03:40;7.10;;;3.10;;
52734;SDS011;38631;47.572;10.704;2024-03-25T03:06:06;5.37;;;3.07;;
52734;SDS011;38631;47.572;10.704;2024-03-25T03:08:31;7.57;;;3.45;;
52734;SDS011;38631;47.572;10.704;2024-03-25T03:10:56;4.97;;;1.85;;
52734;SDS011;38631;47.572;10.704;2024-03-25T03:13:21;4.30;;;1.63;;
52734;SDS011;38631;47.572;10.704;2024-03-25T03:15:46;2.83;;;1.95;;
52734;SDS011;38631;47.572;10.704;2024-03-25T03:18:12;4.03;;;2.40;;
52734;SDS011;38631;47.572;10.704;2024-03-25T03:20:37;2.80;;;1.60;;
52734;SDS011;38631;47.572;10.704;2024-03-25T03:23:03;1.70;;;0.90;;
52734;SDS011;38631;47.572;10.704;2024-03-25T03:25:28;4.05;;;1.00;;
52734;SDS011;38631;47.572;10.704;2024-03-25T03:27:55;0.77;;;0.60;;
52734;SDS011;38631;47.572;10.704;2024-03-25T03:30:21;2.17;;;0.90;;
52734;SDS011;38631;47.572;10.704;2024-03-25T03:32:46;1.20;;;0.82;;
52734;SDS011;38631;47.572;10.704;2024-03-25T03:35:11;2.28;;;0.80;;
52734;SDS011;38631;47.572;10.704;2024-03-25T03:37:36;1.97;;;1.10;;
52734;SDS011;38631;47.572;10.704;2024-03-25T03:40:02;2.53;;;0.90;;
52734;SDS011;38631;47.572;10.704;2024-03-25T03:42:30;1.30;;;0.85;;
52734;SDS011;38631;47.572;10.704;2024-03-25T03:44:55;3.63;;;0.83;;
52734;SDS011;38631;47.572;10.704;2024-03-25T03:47:20;2.40;;;1.00;;
52734;SDS011;38631;47.572;10.704;2024-03-25T03:49:46;1.70;;;0.70;;
52734;SDS011;38631;47.572;10.704;2024-03-25T03:52:11;2.73;;;0.80;;
52734;SDS011;38631;47.572;10.704;2024-03-25T03:54:36;0.93;;;0.73;;
52734;SDS011;38631;47.572;10.704;2024-03-25T03:57:01;1.67;;;0.90;;
52734;SDS011;38631;47.572;10.704;2024-03-25T03:59:26;1.85;;;0.82;;
52734;SDS011;38631;47.572;10.704;2024-03-25T04:01:52;2.47;;;1.00;;
52734;SDS011;38631;47.572;10.704;2024-03-25T04:04:17;1.15;;;0.80;;
52734;SDS011;38631;47.572;10.704;2024-03-25T04:06:42;1.93;;;0.80;;
52734;SDS011;38631;47.572;10.704;2024-03-25T04:09:08;1.85;;;0.85;;
52734;SDS011;38631;47.572;10.704;2024-03-25T04:11:37;1.58;;;0.80;;
52734;SDS011;38631;47.572;10.704;2024-03-25T04:14:02;2.30;;;0.85;;
52734;SDS011;38631;47.572;10.704;2024-03-25T04:16:28;2.05;;;1.02;;
52734;SDS011;38631;47.572;10.704;2024-03-25T04:18:55;2.08;;;0.90;;
52734;SDS011;38631;47.572;10.704;2024-03-25T04:21:21;1.95;;;0.90;;
52734;SDS011;38631;47.572;10.704;2024-03-25T04:23:46;1.23;;;0.73;;
52734;SDS011;38631;47.572;10.704;2024-03-25T04:26:14;2.30;;;1.00;;
52734;SDS011;38631;47.572;10.704;2024-03-25T04:28:39;2.90;;;1.93;;
52734;SDS011;38631;47.572;10.704;2024-03-25T04:31:04;1.60;;;1.20;;
52734;SDS011;38631;47.572;10.704;2024-03-25T04:33:29;1.93;;;1.00;;
52734;SDS011;38631;47.572;10.704;2024-03-25T04:35:54;2.42;;;1.27;;
52734;SDS011;38631;47.572;10.704;2024-03-25T04:38:20;2.00;;;1.53;;
52734;SDS011;38631;47.572;10.704;2024-03-25T04:40:45;1.43;;;1.27;;
52734;SDS011;38631;47.572;10.704;2024-03-25T04:43:10;1.57;;;1.10;;
52734;SDS011;38631;47.572;10.704;2024-03-25T04:45:35;1.87;;;1.23;;
52734;SDS011;38631;47.572;10.704;2024-03-25T04:48:00;1.93;;;0.80;;
52734;SDS011;38631;47.572;10.704;2024-03-25T04:50:26;1.20;;;0.90;;
52734;SDS011;38631;47.572;10.704;2024-03-25T04:52:51;2.33;;;1.02;;
52734;SDS011;38631;47.572;10.704;2024-03-25T04:55:16;4.43;;;1.15;;
52734;SDS011;38631;47.572;10.704;2024-03-25T04:57:41;4.50;;;1.50;;
52734;SDS011;38631;47.572;10.704;2024-03-25T05:00:07;1.60;;;1.20;;
52734;SDS011;38631;47.572;10.704;2024-03-25T05:02:35;2.45;;;1.20;;
52734;SDS011;38631;47.572;10.704;2024-03-25T05:05:01;4.15;;;0.95;;
52734;SDS011;38631;47.572;10.704;2024-03-25T05:07:27;2.45;;;1.30;;
52734;SDS011;38631;47.572;10.704;2024-03-25T05:09:52;3.13;;;0.90;;
52734;SDS011;38631;47.572;10.704;2024-03-25T05:12:18;2.95;;;0.88;;
52734;SDS011;38631;47.572;10.704;2024-03-25T05:14:43;3.13;;;2.20;;
52734;SDS011;38631;47.572;10.704;2024-03-25T05:17:08;5.40;;;1.03;;
52734;SDS011;38631;47.572;10.704;2024-03-25T05:19:34;1.70;;;0.90;;
52734;SDS011;38631;47.572;10.704;2024-03-25T05:21:59;1.93;;;1.13;;
52734;SDS011;38631;47.572;10.704;2024-03-25T05:24:24;1.63;;;0.80;;
52734;SDS011;38631;47.572;10.704;2024-03-25T05:26:49;2.63;;;1.63;;
52734;SDS011;38631;47.572;10.704;2024-03-25T05:29:15;5.07;;;2.70;;
52734;SDS011;38631;47.572;10.704;2024-03-25T05:31:54;4.97;;;3.30;;
52734;SDS011;38631;47.572;10.704;2024-03-25T05:34:20;3.00;;;2.70;;
52734;SDS011;38631;47.572;10.704;2024-03-25T05:36:45;3.13;;;2.60;;
52734;SDS011;38631;47.572;10.704;2024-03-25T05:39:11;4.00;;;3.20;;
52734;SDS011;38631;47.572;10.704;2024-03-25T05:41:36;3.33;;;2.40;;
52734;SDS011;38631;47.572;10.704;2024-03-25T05:44:01;2.30;;;2.10;;
52734;SDS011;38631;47.572;10.704;2024-03-25T05:46:26;3.13;;;1.80;;
52734;SDS011;38631;47.572;10.704;2024-03-25T05:48:52;3.40;;;1.40;;
52734;SDS011;38631;47.572;10.704;2024-03-25T05:51:17;2.97;;;1.80;;
52734;SDS011;38631;47.572;10.704;2024-03-25T05:53:44;2.15;;;1.60;;
52734;SDS011;38631;47.572;10.704;2024-03-25T05:56:09;2.20;;;1.27;;
52734;SDS011;38631;47.572;10.704;2024-03-25T05:58:34;2.17;;;1.13;;
52734;SDS011;38631;47.572;10.704;2024-03-25T06:00:59;2.73;;;0.97;;
52734;SDS011;38631;47.572;10.704;2024-03-25T06:03:26;2.15;;;1.30;;
52734;SDS011;38631;47.572;10.704;2024-03-25T06:05:51;4.30;;;1.40;;
52734;SDS011;38631;47.572;10.704;2024-03-25T06:08:16;2.27;;;1.53;;
52734;SDS011;38631;47.572;10.704;2024-03-25T06:10:51;2.15;;;1.25;;
52734;SDS011;38631;47.572;10.704;2024-03-25T06:13:16;2.55;;;1.40;;
52734;SDS011;38631;47.572;10.704;2024-03-25T06:15:41;2.38;;;2.13;;
52734;SDS011;38631;47.572;10.704;2024-03-25T06:18:06;4.83;;;3.77;;
52734;SDS011;38631;47.572;10.704;2024-03-25T06:20:32;5.67;;;3.70;;
52734;SDS011;38631;47.572;10.704;2024-03-25T06:22:57;5.73;;;5.13;;
52734;SDS011;38631;47.572;10.704;2024-03-25T06:25:22;5.73;;;3.77;;
52734;SDS011;38631;47.572;10.704;2024-03-25T06:27:47;4.00;;;3.57;;
52734;SDS011;38631;47.572;10.704;2024-03-25T06:30:12;5.17;;;3.03;;
52734;SDS011;38631;47.572;10.704;2024-03-25T06:32:56;6.85;;;3.83;;
52734;SDS011;38631;47.572;10.704;2024-03-25T06:35:43;4.63;;;2.47;;
52734;SDS011;38631;47.572;10.704;2024-03-25T06:38:09;6.47;;;3.10;;
52734;SDS011;38631;47.572;10.704;2024-03-25T06:40:35;6.13;;;3.35;;
52734;SDS011;38631;47.572;10.704;2024-03-25T06:43:00;3.45;;;1.70;;
52734;SDS011;38631;47.572;10.704;2024-03-25T06:45:25;2.08;;;1.40;;
52734;SDS011;38631;47.572;10.704;2024-03-25T06:47:50;7.27;;;2.03;;
52734;SDS011;38631;47.572;10.704;2024-03-25T06:50:16;2.30;;;1.35;;
52734;SDS011;38631;47.572;10.704;2024-03-25T06:52:42;2.00;;;1.33;;
52734;SDS011;38631;47.572;10.704;2024-03-25T06:55:07;2.65;;;1.20;;
52734;SDS011;38631;47.572;10.704;2024-03-25T06:57:33;2.25;;;1.30;;
52734;SDS011;38631;47.572;10.704;2024-03-25T06:59:58;3.47;;;1.60;;
52734;SDS011;38631;47.572;10.704;2024-03-25T07:02:23;4.00;;;1.60;;
52734;SDS011;38631;47.572;10.704;2024-03-25T07:04:49;2.77;;;1.50;;
52734;SDS011;38631;47.572;10.704;2024-03-25T07:07:14;1.85;;;1.30;;
52734;SDS011;38631;47.572;10.704;2024-03-25T07:09:39;5.73;;;1.73;;
52734;SDS011;38631;47.572;10.704;2024-03-25T07:12:04;1.97;;;1.30;;
52734;SDS011;38631;47.572;10.704;2024-03-25T07:14:29;3.28;;;2.03;;
52734;SDS011;38631;47.572;10.704;2024-03-25T07:16:55;6.03;;;2.00;;
52734;SDS011;38631;47.572;10.704;2024-03-25T07:19:20;1.75;;;1.40;;
52734;SDS011;38631;47.572;10.704;2024-03-25T07:21:45;2.33;;;1.50;;
52734;SDS011;38631;47.572;10.704;2024-03-25T07:24:10;3.33;;;1.27;;
52734;SDS011;38631;47.572;10.704;2024-03-25T07:26:36;2.75;;;1.17;;
52734;SDS011;38631;47.572;10.704;2024-03-25T07:29:01;4.37;;;1.20;;
52734;SDS011;38631;47.572;10.704;2024-03-25T07:31:26;1.87;;;1.30;;
52734;SDS011;38631;47.572;10.704;2024-03-25T07:33:51;1.55;;;1.05;;
52734;SDS011;38631;47.572;10.704;2024-03-25T07:36:16;1.77;;;1.10;;
52734;SDS011;38631;47.572;10.704;2024-03-25T07:38:43;2.35;;;1.15;;
52734;SDS011;38631;47.572;10.704;2024-03-25T07:41:09;2.13;;;1.40;;
52734;SDS011;38631;47.572;10.704;2024-03-25T07:43:34;2.40;;;1.30;;
52734;SDS011;38631;47.572;10.704;2024-03-25T07:45:59;1.00;;;0.80;;
52734;SDS011;38631;47.572;10.704;2024-03-25T07:48:24;3.10;;;1.73;;
52734;SDS011;38631;47.572;10.704;2024-03-25T07:50:50;1.20;;;0.87;;
52734;SDS011;38631;47.572;10.704;2024-03-25T07:53:15;2.57;;;0.93;;
52734;SDS011;38631;47.572;10.704;2024-03-25T07:55:40;1.40;;;0.87;;
52734;SDS011;38631;47.572;10.704;2024-03-25T07:58:05;2.53;;;1.00;;
52734;SDS011;38631;47.572;10.704;2024-03-25T08:00:30;2.10;;;1.27;;
52734;SDS011;38631;47.572;10.704;2024-03-25T08:02:55;2.97;;;1.00;;
52734;SDS011;38631;47.572;10.704;2024-03-25T08:05:21;5.33;;;1.40;;
52734;SDS011;38631;47.572;10.704;2024-03-25T08:07:47;2.47;;;1.48;;
52734;SDS011;38631;47.572;10.704;2024-03-25T08:10:13;2.75;;;1.40;;
52734;SDS011;38631;47.572;10.704;2024-03-25T08:12:38;3.53;;;1.90;;
52734;SDS011;38631;47.572;10.704;2024-03-25T08:15:03;2.25;;;1.20;;
52734;SDS011;38631;47.572;10.704;2024-03-25T08:17:29;2.97;;;1.73;;
52734;SDS011;38631;47.572;10.704;2024-03-25T08:19:54;2.17;;;1.10;;
52734;SDS011;38631;47.572;10.704;2024-03-25T08:22:19;4.23;;;1.20;;
52734;SDS011;38631;47.572;10.704;2024-03-25T08:24:45;2.85;;;1.15;;
52734;SDS011;38631;47.572;10.704;2024-03-25T08:27:10;1.37;;;0.80;;
52734;SDS011;38631;47.572;10.704;2024-03-25T08:29:35;1.20;;;0.90;;
52734;SDS011;38631;47.572;10.704;2024-03-25T08:32:00;2.07;;;1.00;;
52734;SDS011;38631;47.572;10.704;2024-03-25T08:34:25;1.43;;;0.73;;
52734;SDS011;38631;47.572;10.704;2024-03-25T08:36:51;3.17;;;0.80;;
52734;SDS011;38631;47.572;10.704;2024-03-25T08:39:16;2.53;;;1.13;;
52734;SDS011;38631;47.572;10.704;2024-03-25T08:41:41;2.60;;;1.10;;
52734;SDS011;38631;47.572;10.704;2024-03-25T08:44:06;2.50;;;0.80;;
52734;SDS011;38631;47.572;10.704;2024-03-25T08:46:31;1.67;;;0.87;;
52734;SDS011;38631;47.572;10.704;2024-03-25T08:48:57;3.10;;;0.90;;
52734;SDS011;38631;47.572;10.704;2024-03-25T08:51:22;1.70;;;0.60;;
52734;SDS011;38631;47.572;10.704;2024-03-25T08:53:48;3.30;;;0.87;;
52734;SDS011;38631;47.572;10.704;2024-03-25T08:56:13;3.53;;;0.87;;
52734;SDS011;38631;47.572;10.704;2024-03-25T08:58:38;1.50;;;0.83;;
52734;SDS011;38631;47.572;10.704;2024-03-25T09:01:03;2.20;;;0.70;;
52734;SDS011;38631;47.572;10.704;2024-03-25T09:03:28;2.13;;;0.80;;
52734;SDS011;38631;47.572;10.704;2024-03-25T09:05:55;1.40;;;0.70;;
52734;SDS011;38631;47.572;10.704;2024-03-25T09:08:21;1.92;;;0.77;;
52734;SDS011;38631;47.572;10.704;2024-03-25T09:10:47;2.10;;;0.60;;
52734;SDS011;38631;47.572;10.704;2024-03-25T09:13:27;1.10;;;0.63;;
52734;SDS011;38631;47.572;10.704;2024-03-25T09:15:52;3.15;;;1.45;;
52734;SDS011;38631;47.572;10.704;2024-03-25T09:18:18;1.40;;;0.60;;
52734;SDS011;38631;47.572;10.704;2024-03-25T09:20:43;1.40;;;0.70;;
52734;SDS011;38631;47.572;10.704;2024-03-25T09:23:09;1.40;;;0.60;;
52734;SDS011;38631;47.572;10.704;2024-03-25T09:25:34;1.20;;;0.80;;
52734;SDS011;38631;47.572;10.704;2024-03-25T09:27:59;1.13;;;0.50;;
52734;SDS011;38631;47.572;10.704;2024-03-25T09:30:26;2.60;;;1.10;;
52734;SDS011;38631;47.572;10.704;2024-03-25T09:32:51;1.55;;;0.63;;
52734;SDS011;38631;47.572;10.704;2024-03-25T09:35:16;0.53;;;0.43;;
52734;SDS011;38631;47.572;10.704;2024-03-25T09:37:41;1.03;;;0.60;;
52734;SDS011;38631;47.572;10.704;2024-03-25T09:40:07;1.92;;;0.43;;
52734;SDS011;38631;47.572;10.704;2024-03-25T09:45:01;2.53;;;0.70;;
52734;SDS011;38631;47.572;10.704;2024-03-25T09:47:26;2.20;;;0.63;;
52734;SDS011;38631;47.572;10.704;2024-03-25T09:49:52;1.40;;;0.73;;
52734;SDS011;38631;47.572;10.704;2024-03-25T09:52:19;1.02;;;0.47;;
52734;SDS011;38631;47.572;10.704;2024-03-25T09:54:44;1.58;;;0.52;;
52734;SDS011;38631;47.572;10.704;2024-03-25T09:57:09;1.90;;;0.70;;
52734;SDS011;38631;47.572;10.704;2024-03-25T09:59:35;1.00;;;0.40;;
52734;SDS011;38631;47.572;10.704;2024-03-25T10:02:01;1.40;;;0.60;;
52734;SDS011;38631;47.572;10.704;2024-03-25T10:04:26;2.72;;;0.50;;
52734;SDS011;38631;47.572;10.704;2024-03-25T10:06:51;1.15;;;0.60;;
52734;SDS011;38631;47.572;10.704;2024-03-25T10:09:20;0.52;;;0.30;;
52734;SDS011;38631;47.572;10.704;2024-03-25T10:11:48;1.63;;;0.45;;
52734;SDS011;38631;47.572;10.704;2024-03-25T10:14:14;1.00;;;0.50;;
52734;SDS011;38631;47.572;10.704;2024-03-25T10:16:40;2.45;;;0.50;;
52734;SDS011;38631;47.572;10.704;2024-03-25T10:19:06;1.00;;;0.60;;
52734;SDS011;38631;47.572;10.704;2024-03-25T10:21:32;1.38;;;0.50;;
52734;SDS011;38631;47.572;10.704;2024-03-25T10:23:57;1.60;;;0.70;;
52734;SDS011;38631;47.572;10.704;2024-03-25T10:26:26;1.27;;;0.50;;
52734;SDS011;38631;47.572;10.704;2024-03-25T10:29:01;4.07;;;0.55;;
52734;SDS011;38631;47.572;10.704;2024-03-25T10:31:27;1.50;;;0.80;;
52734;SDS011;38631;47.572;10.704;2024-03-25T10:33:53;2.13;;;0.67;;
52734;SDS011;38631;47.572;10.704;2024-03-25T10:36:19;1.93;;;0.60;;
52734;SDS011;38631;47.572;10.704;2024-03-25T10:38:44;1.27;;;0.40;;
52734;SDS011;38631;47.572;10.704;2024-03-25T10:41:09;0.75;;;0.50;;
52734;SDS011;38631;47.572;10.704;2024-03-25T10:43:36;1.52;;;0.45;;
52734;SDS011;38631;47.572;10.704;2024-03-25T10:46:02;1.35;;;0.40;;
52734;SDS011;38631;47.572;10.704;2024-03-25T10:48:28;2.15;;;0.43;;
52734;SDS011;38631;47.572;10.704;2024-03-25T10:50:57;1.20;;;0.50;;
52734;SDS011;38631;47.572;10.704;2024-03-25T10:53:23;1.40;;;0.38;;
52734;SDS011;38631;47.572;10.704;2024-03-25T10:55:50;1.02;;;0.60;;
52734;SDS011;38631;47.572;10.704;2024-03-25T10:58:16;0.80;;;0.35;;
52734;SDS011;38631;47.572;10.704;2024-03-25T11:00:42;1.27;;;0.40;;
52734;SDS011;38631;47.572;10.704;2024-03-25T11:03:07;0.82;;;0.50;;
52734;SDS011;38631;47.572;10.704;2024-03-25T11:05:33;0.65;;;0.35;;
52734;SDS011;38631;47.572;10.704;2024-03-25T11:08:08;1.23;;;0.45;;
52734;SDS011;38631;47.572;10.704;2024-03-25T11:10:34;0.43;;;0.30;;
52734;SDS011;38631;47.572;10.704;2024-03-25T11:13:04;1.77;;;0.70;;
52734;SDS011;38631;47.572;10.704;2024-03-25T11:15:38;0.80;;;0.50;;
52734;SDS011;38631;47.572;10.704;2024-03-25T11:18:05;3.83;;;0.60;;
52734;SDS011;38631;47.572;10.704;2024-03-25T11:20:35;1.02;;;0.40;;
52734;SDS011;38631;47.572;10.704;2024-03-25T11:23:07;1.30;;;0.50;;
52734;SDS011;38631;47.572;10.704;2024-03-25T11:25:32;2.50;;;0.50;;
52734;SDS011;38631;47.572;10.704;2024-03-25T11:27:58;0.80;;;0.30;;
52734;SDS011;38631;47.572;10.704;2024-03-25T11:30:25;1.17;;;0.50;;
52734;SDS011;38631;47.572;10.704;2024-03-25T11:33:00;1.38;;;0.50;;
52734;SDS011;38631;47.572;10.704;2024-03-25T11:35:26;1.95;;;0.50;;
52734;SDS011;38631;47.572;10.704;2024-03-25T11:37:51;0.63;;;0.35;;
52734;SDS011;38631;47.572;10.704;2024-03-25T11:40:17;0.80;;;0.50;;
52734;SDS011;38631;47.572;10.704;2024-03-25T11:42:42;1.00;;;0.30;;
52734;SDS011;38631;47.572;10.704;2024-03-25T11:45:13;1.23;;;0.50;;
52734;SDS011;38631;47.572;10.704;2024-03-25T11:47:40;1.52;;;0.40;;
52734;SDS011;38631;47.572;10.704;2024-03-25T11:50:08;0.68;;;0.43;;
52734;SDS011;38631;47.572;10.704;2024-03-25T11:52:34;1.13;;;0.50;;
52734;SDS011;38631;47.572;10.704;2024-03-25T11:54:59;0.87;;;0.37;;
52734;SDS011;38631;47.572;10.704;2024-03-25T11:57:24;1.60;;;0.50;;
52734;SDS011;38631;47.572;10.704;2024-03-25T11:59:50;0.50;;;0.25;;
52734;SDS011;38631;47.572;10.704;2024-03-25T12:02:15;0.50;;;0.30;;
52734;SDS011;38631;47.572;10.704;2024-03-25T12:04:44;0.45;;;0.20;;
52734;SDS011;38631;47.572;10.704;2024-03-25T12:07:10;2.72;;;0.88;;
52734;SDS011;38631;47.572;10.704;2024-03-25T12:09:36;1.70;;;0.50;;
52734;SDS011;38631;47.572;10.704;2024-03-25T12:12:20;2.35;;;0.40;;
52734;SDS011;38631;47.572;10.704;2024-03-25T12:14:45;1.90;;;0.50;;
52734;SDS011;38631;47.572;10.704;2024-03-25T12:17:10;0.95;;;0.50;;
52734;SDS011;38631;47.572;10.704;2024-03-25T12:19:35;0.93;;;0.37;;
52734;SDS011;38631;47.572;10.704;2024-03-25T12:22:00;1.33;;;0.40;;
52734;SDS011;38631;47.572;10.704;2024-03-25T12:24:26;0.77;;;0.53;;
52734;SDS011;38631;47.572;10.704;2024-03-25T12:26:51;1.38;;;0.55;;
52734;SDS011;38631;47.572;10.704;2024-03-25T12:29:16;2.33;;;0.47;;
52734;SDS011;38631;47.572;10.704;2024-03-25T12:31:41;1.80;;;0.50;;
52734;SDS011;38631;47.572;10.704;2024-03-25T12:34:12;0.97;;;0.37;;
52734;SDS011;38631;47.572;10.704;2024-03-25T12:36:37;1.25;;;0.50;;
52734;SDS011;38631;47.572;10.704;2024-03-25T12:39:02;1.17;;;0.40;;
52734;SDS011;38631;47.572;10.704;2024-03-25T12:41:28;0.50;;;0.30;;
52734;SDS011;38631;47.572;10.704;2024-03-25T12:43:54;0.77;;;0.37;;
52734;SDS011;38631;47.572;10.704;2024-03-25T12:46:19;2.35;;;0.50;;
52734;SDS011;38631;47.572;10.704;2024-03-25T12:48:44;1.70;;;0.43;;
52734;SDS011;38631;47.572;10.704;2024-03-25T12:51:14;0.60;;;0.40;;
52734;SDS011;38631;47.572;10.704;2024-03-25T12:53:39;2.58;;;0.43;;
52734;SDS011;38631;47.572;10.704;2024-03-25T12:56:04;2.37;;;0.70;;
52734;SDS011;38631;47.572;10.704;2024-03-25T12:58:29;2.28;;;0.30;;
52734;SDS011;38631;47.572;10.704;2024-03-25T13:00:55;1.30;;;0.40;;
52734;SDS011;38631;47.572;10.704;2024-03-25T13:03:20;2.15;;;0.50;;
52734;SDS011;38631;47.572;10.704;2024-03-25T13:05:46;1.05;;;0.45;;
52734;SDS011;38631;47.572;10.704;2024-03-25T13:08:11;0.87;;;0.30;;
52734;SDS011;38631;47.572;10.704;2024-03-25T13:10:36;1.17;;;0.50;;
52734;SDS011;38631;47.572;10.704;2024-03-25T13:13:02;1.87;;;0.60;;
52734;SDS011;38631;47.572;10.704;2024-03-25T13:15:27;2.85;;;0.60;;
52734;SDS011;38631;47.572;10.704;2024-03-25T13:17:53;1.77;;;0.50;;
52734;SDS011;38631;47.572;10.704;2024-03-25T13:20:18;0.60;;;0.40;;
52734;SDS011;38631;47.572;10.704;2024-03-25T13:22:44;0.93;;;0.40;;
52734;SDS011;38631;47.572;10.704;2024-03-25T13:25:09;0.43;;;0.40;;
52734;SDS011;38631;47.572;10.704;2024-03-25T13:27:34;0.80;;;0.30;;
52734;SDS011;38631;47.572;10.704;2024-03-25T13:30:00;0.83;;;0.60;;
52734;SDS011;38631;47.572;10.704;2024-03-25T13:32:25;1.90;;;0.40;;
52734;SDS011;38631;47.572;10.704;2024-03-25T13:34:50;1.88;;;0.43;;
52734;SDS011;38631;47.572;10.704;2024-03-25T13:37:15;0.98;;;0.50;;
52734;SDS011;38631;47.572;10.704;2024-03-25T13:39:40;0.85;;;0.40;;
52734;SDS011;38631;47.572;10.704;2024-03-25T13:42:06;1.47;;;0.40;;
52734;SDS011;38631;47.572;10.704;2024-03-25T13:44:31;0.80;;;0.37;;
52734;SDS011;38631;47.572;10.704;2024-03-25T13:46:56;0.83;;;0.57;;
52734;SDS011;38631;47.572;10.704;2024-03-25T13:49:21;1.10;;;0.30;;
52734;SDS011;38631;47.572;10.704;2024-03-25T13:51:48;0.80;;;0.50;;
52734;SDS011;38631;47.572;10.704;2024-03-25T13:54:13;0.63;;;0.30;;
52734;SDS011;38631;47.572;10.704;2024-03-25T13:56:38;0.63;;;0.40;;
52734;SDS011;38631;47.572;10.704;2024-03-25T13:59:06;1.92;;;0.30;;
52734;SDS011;38631;47.572;10.704;2024-03-25T14:01:32;0.90;;;0.63;;
52734;SDS011;38631;47.572;10.704;2024-03-25T14:03:57;1.07;;;0.60;;
52734;SDS011;38631;47.572;10.704;2024-03-25T14:06:22;0.80;;;0.65;;
52734;SDS011;38631;47.572;10.704;2024-03-25T14:08:48;0.88;;;0.30;;
52734;SDS011;38631;47.572;10.704;2024-03-25T14:11:13;1.03;;;0.50;;
52734;SDS011;38631;47.572;10.704;2024-03-25T14:13:38;0.80;;;0.40;;
52734;SDS011;38631;47.572;10.704;2024-03-25T14:16:03;1.30;;;0.33;;
52734;SDS011;38631;47.572;10.704;2024-03-25T14:18:29;0.70;;;0.30;;
52734;SDS011;38631;47.572;10.704;2024-03-25T14:20:55;1.98;;;0.52;;
52734;SDS011;38631;47.572;10.704;2024-03-25T14:23:21;0.47;;;0.30;;
52734;SDS011;38631;47.572;10.704;2024-03-25T14:25:47;1.60;;;0.33;;
52734;SDS011;38631;47.572;10.704;2024-03-25T14:28:12;0.80;;;0.30;;